sensor_id;sensor_type;location;lat;lon;timestamp;P1;durP1;ratioP1;P2;durP2;ratioP2
39654;SDS011;25336;59.944;11.010;2023-08-30T00:00:09;2.00;;;1.13;;
39654;SDS011;25336;59.944;11.010;2023-08-30T00:02:35;2.25;;;1.55;;
39654;SDS011;25336;59.944;11.010;2023-08-30T00:05:02;5.70;;;1.35;;
39654;SDS011;25336;59.944;11.010;2023-08-30T00:07:29;3.33;;;1.50;;
39654;SDS011;25336;59.944;11.010;2023-08-30T00:09:55;4.05;;;1.45;;
39654;SDS011;25336;59.944;11.010;2023-08-30T00:12:23;1.45;;;0.90;;
39654;SDS011;25336;59.944;11.010;2023-08-30T00:14:49;4.07;;;1.13;;
39654;SDS011;25336;59.944;11.010;2023-08-30T00:17:15;2.60;;;1.42;;
39654;SDS011;25336;59.944;11.010;2023-08-30T00:19:41;3.88;;;1.50;;
39654;SDS011;25336;59.944;11.010;2023-08-30T00:22:07;3.17;;;1.30;;
39654;SDS011;25336;59.944;11.010;2023-08-30T00:24:33;4.10;;;1.73;;
39654;SDS011;25336;59.944;11.010;2023-08-30T00:26:59;1.60;;;1.50;;
39654;SDS011;25336;59.944;11.010;2023-08-30T00:29:25;4.28;;;1.65;;
39654;SDS011;25336;59.944;11.010;2023-08-30T00:31:51;1.50;;;1.40;;
39654;SDS011;25336;59.944;11.010;2023-08-30T00:34:17;3.08;;;1.30;;
39654;SDS011;25336;59.944;11.010;2023-08-30T00:36:42;1.48;;;1.20;;
39654;SDS011;25336;59.944;11.010;2023-08-30T00:39:08;2.38;;;1.40;;
39654;SDS011;25336;59.944;11.010;2023-08-30T00:41:34;2.50;;;1.38;;
39654;SDS011;25336;59.944;11.010;2023-08-30T00:44:00;6.25;;;1.50;;
39654;SDS011;25336;59.944;11.010;2023-08-30T00:46:25;4.63;;;2.88;;
39654;SDS011;25336;59.944;11.010;2023-08-30T00:48:52;9.02;;;1.90;;
39654;SDS011;25336;59.944;11.010;2023-08-30T00:51:18;4.72;;;1.60;;
39654;SDS011;25336;59.944;11.010;2023-08-30T00:53:44;2.55;;;1.60;;
39654;SDS011;25336;59.944;11.010;2023-08-30T00:56:10;1.83;;;1.08;;
39654;SDS011;25336;59.944;11.010;2023-08-30T00:58:35;3.05;;;1.30;;
39654;SDS011;25336;59.944;11.010;2023-08-30T01:01:03;2.90;;;1.52;;
39654;SDS011;25336;59.944;11.010;2023-08-30T01:03:33;5.60;;;1.38;;
39654;SDS011;25336;59.944;11.010;2023-08-30T01:06:03;4.05;;;2.15;;
39654;SDS011;25336;59.944;11.010;2023-08-30T01:08:28;16.15;;;2.13;;
39654;SDS011;25336;59.944;11.010;2023-08-30T01:11:15;5.20;;;1.70;;
39654;SDS011;25336;59.944;11.010;2023-08-30T01:13:51;3.17;;;1.30;;
39654;SDS011;25336;59.944;11.010;2023-08-30T01:16:21;2.45;;;1.73;;
39654;SDS011;25336;59.944;11.010;2023-08-30T01:18:49;2.97;;;1.70;;
39654;SDS011;25336;59.944;11.010;2023-08-30T01:21:23;2.20;;;1.50;;
39654;SDS011;25336;59.944;11.010;2023-08-30T01:24:01;1.73;;;1.00;;
39654;SDS011;25336;59.944;11.010;2023-08-30T01:29:05;1.92;;;1.30;;
39654;SDS011;25336;59.944;11.010;2023-08-30T01:31:33;3.95;;;1.65;;
39654;SDS011;25336;59.944;11.010;2023-08-30T01:34:03;3.85;;;1.30;;
39654;SDS011;25336;59.944;11.010;2023-08-30T01:36:29;3.33;;;1.35;;
39654;SDS011;25336;59.944;11.010;2023-08-30T01:38:56;5.80;;;1.50;;
39654;SDS011;25336;59.944;11.010;2023-08-30T01:41:24;2.42;;;1.25;;
39654;SDS011;25336;59.944;11.010;2023-08-30T01:43:51;2.50;;;1.63;;
39654;SDS011;25336;59.944;11.010;2023-08-30T01:46:18;3.38;;;1.70;;
39654;SDS011;25336;59.944;11.010;2023-08-30T01:48:46;2.78;;;1.55;;
39654;SDS011;25336;59.944;11.010;2023-08-30T01:51:14;5.07;;;1.55;;
39654;SDS011;25336;59.944;11.010;2023-08-30T01:53:42;8.32;;;1.77;;
39654;SDS011;25336;59.944;11.010;2023-08-30T01:56:09;1.63;;;1.25;;
39654;SDS011;25336;59.944;11.010;2023-08-30T01:58:35;4.03;;;1.42;;
39654;SDS011;25336;59.944;11.010;2023-08-30T02:01:01;1.80;;;1.20;;
39654;SDS011;25336;59.944;11.010;2023-08-30T02:03:26;2.47;;;1.42;;
39654;SDS011;25336;59.944;11.010;2023-08-30T02:05:57;1.02;;;0.90;;
39654;SDS011;25336;59.944;11.010;2023-08-30T02:08:35;3.00;;;1.13;;
39654;SDS011;25336;59.944;11.010;2023-08-30T02:11:04;2.03;;;1.30;;
39654;SDS011;25336;59.944;11.010;2023-08-30T02:13:35;2.78;;;1.05;;
39654;SDS011;25336;59.944;11.010;2023-08-30T02:16:02;3.13;;;1.15;;
39654;SDS011;25336;59.944;11.010;2023-08-30T02:18:28;10.73;;;1.40;;
39654;SDS011;25336;59.944;11.010;2023-08-30T02:20:54;3.25;;;1.92;;
39654;SDS011;25336;59.944;11.010;2023-08-30T02:23:24;4.70;;;1.40;;
39654;SDS011;25336;59.944;11.010;2023-08-30T02:25:50;1.58;;;1.20;;
39654;SDS011;25336;59.944;11.010;2023-08-30T02:28:16;2.45;;;1.00;;
39654;SDS011;25336;59.944;11.010;2023-08-30T02:30:41;2.25;;;1.27;;
39654;SDS011;25336;59.944;11.010;2023-08-30T02:33:07;5.22;;;1.30;;
39654;SDS011;25336;59.944;11.010;2023-08-30T02:35:35;2.10;;;1.10;;
39654;SDS011;25336;59.944;11.010;2023-08-30T02:38:00;1.45;;;1.33;;
39654;SDS011;25336;59.944;11.010;2023-08-30T02:40:29;5.57;;;1.80;;
39654;SDS011;25336;59.944;11.010;2023-08-30T02:42:56;4.90;;;1.60;;
39654;SDS011;25336;59.944;11.010;2023-08-30T02:45:21;1.40;;;1.10;;
39654;SDS011;25336;59.944;11.010;2023-08-30T02:47:47;2.35;;;1.63;;
39654;SDS011;25336;59.944;11.010;2023-08-30T02:50:13;2.83;;;1.40;;
39654;SDS011;25336;59.944;11.010;2023-08-30T02:52:39;2.80;;;1.38;;
39654;SDS011;25336;59.944;11.010;2023-08-30T02:55:05;2.03;;;1.23;;
39654;SDS011;25336;59.944;11.010;2023-08-30T02:57:31;6.93;;;1.52;;
39654;SDS011;25336;59.944;11.010;2023-08-30T02:59:57;2.10;;;1.38;;
39654;SDS011;25336;59.944;11.010;2023-08-30T03:02:22;2.70;;;1.25;;
39654;SDS011;25336;59.944;11.010;2023-08-30T03:04:48;1.88;;;1.35;;
39654;SDS011;25336;59.944;11.010;2023-08-30T03:07:13;1.58;;;1.33;;
39654;SDS011;25336;59.944;11.010;2023-08-30T03:09:39;1.75;;;1.10;;
39654;SDS011;25336;59.944;11.010;2023-08-30T03:12:06;2.90;;;1.38;;
39654;SDS011;25336;59.944;11.010;2023-08-30T03:14:31;4.45;;;1.30;;
39654;SDS011;25336;59.944;11.010;2023-08-30T03:16:57;4.45;;;1.48;;
39654;SDS011;25336;59.944;11.010;2023-08-30T03:19:22;1.63;;;1.30;;
39654;SDS011;25336;59.944;11.010;2023-08-30T03:21:48;2.50;;;1.10;;
39654;SDS011;25336;59.944;11.010;2023-08-30T03:24:14;2.13;;;1.40;;
39654;SDS011;25336;59.944;11.010;2023-08-30T03:26:42;2.67;;;1.27;;
39654;SDS011;25336;59.944;11.010;2023-08-30T03:29:08;6.60;;;1.30;;
39654;SDS011;25336;59.944;11.010;2023-08-30T03:31:34;2.63;;;1.20;;
39654;SDS011;25336;59.944;11.010;2023-08-30T03:34:00;2.45;;;1.83;;
39654;SDS011;25336;59.944;11.010;2023-08-30T03:36:25;3.30;;;1.55;;
39654;SDS011;25336;59.944;11.010;2023-08-30T03:38:51;4.05;;;1.42;;
39654;SDS011;25336;59.944;11.010;2023-08-30T03:41:17;4.30;;;1.63;;
39654;SDS011;25336;59.944;11.010;2023-08-30T03:43:43;2.17;;;1.27;;
39654;SDS011;25336;59.944;11.010;2023-08-30T03:46:09;1.52;;;1.20;;
39654;SDS011;25336;59.944;11.010;2023-08-30T03:48:36;3.70;;;1.40;;
39654;SDS011;25336;59.944;11.010;2023-08-30T03:51:02;2.80;;;0.95;;
39654;SDS011;25336;59.944;11.010;2023-08-30T03:53:28;1.92;;;1.25;;
39654;SDS011;25336;59.944;11.010;2023-08-30T03:55:55;11.38;;;1.45;;
39654;SDS011;25336;59.944;11.010;2023-08-30T03:58:21;4.15;;;1.70;;
39654;SDS011;25336;59.944;11.010;2023-08-30T04:00:46;1.73;;;1.20;;
39654;SDS011;25336;59.944;11.010;2023-08-30T04:03:13;2.67;;;1.75;;
39654;SDS011;25336;59.944;11.010;2023-08-30T04:05:40;1.70;;;1.30;;
39654;SDS011;25336;59.944;11.010;2023-08-30T04:08:06;1.52;;;1.25;;
39654;SDS011;25336;59.944;11.010;2023-08-30T04:10:35;4.18;;;1.42;;
39654;SDS011;25336;59.944;11.010;2023-08-30T04:13:02;10.98;;;2.17;;
39654;SDS011;25336;59.944;11.010;2023-08-30T04:15:29;6.45;;;2.60;;
39654;SDS011;25336;59.944;11.010;2023-08-30T04:17:57;10.88;;;2.85;;
39654;SDS011;25336;59.944;11.010;2023-08-30T04:20:23;5.95;;;2.63;;
39654;SDS011;25336;59.944;11.010;2023-08-30T04:22:48;9.57;;;3.45;;
39654;SDS011;25336;59.944;11.010;2023-08-30T04:25:14;5.30;;;2.90;;
39654;SDS011;25336;59.944;11.010;2023-08-30T04:27:39;5.90;;;3.28;;
39654;SDS011;25336;59.944;11.010;2023-08-30T04:30:05;10.60;;;4.55;;
39654;SDS011;25336;59.944;11.010;2023-08-30T04:32:31;15.48;;;4.13;;
39654;SDS011;25336;59.944;11.010;2023-08-30T04:34:57;7.13;;;4.38;;
39654;SDS011;25336;59.944;11.010;2023-08-30T04:37:23;9.82;;;4.38;;
39654;SDS011;25336;59.944;11.010;2023-08-30T04:39:48;9.40;;;3.45;;
39654;SDS011;25336;59.944;11.010;2023-08-30T04:42:14;6.68;;;3.10;;
39654;SDS011;25336;59.944;11.010;2023-08-30T04:44:40;8.50;;;2.85;;
39654;SDS011;25336;59.944;11.010;2023-08-30T04:47:06;11.18;;;3.60;;
39654;SDS011;25336;59.944;11.010;2023-08-30T04:49:31;4.97;;;2.95;;
39654;SDS011;25336;59.944;11.010;2023-08-30T04:51:57;4.63;;;2.03;;
39654;SDS011;25336;59.944;11.010;2023-08-30T04:54:23;4.20;;;2.08;;
39654;SDS011;25336;59.944;11.010;2023-08-30T04:56:48;4.68;;;2.45;;
39654;SDS011;25336;59.944;11.010;2023-08-30T04:59:14;6.05;;;2.55;;
39654;SDS011;25336;59.944;11.010;2023-08-30T05:01:40;3.75;;;2.60;;
39654;SDS011;25336;59.944;11.010;2023-08-30T05:04:09;3.13;;;2.47;;
39654;SDS011;25336;59.944;11.010;2023-08-30T05:06:35;4.85;;;2.83;;
39654;SDS011;25336;59.944;11.010;2023-08-30T05:09:01;16.73;;;5.00;;
39654;SDS011;25336;59.944;11.010;2023-08-30T05:11:27;4.13;;;2.80;;
39654;SDS011;25336;59.944;11.010;2023-08-30T05:13:54;5.97;;;3.40;;
39654;SDS011;25336;59.944;11.010;2023-08-30T05:16:20;12.27;;;6.47;;
39654;SDS011;25336;59.944;11.010;2023-08-30T05:18:45;11.88;;;6.10;;
39654;SDS011;25336;59.944;11.010;2023-08-30T05:21:13;8.77;;;5.82;;
39654;SDS011;25336;59.944;11.010;2023-08-30T05:23:39;6.90;;;4.93;;
39654;SDS011;25336;59.944;11.010;2023-08-30T05:26:07;8.93;;;3.88;;
39654;SDS011;25336;59.944;11.010;2023-08-30T05:28:34;6.57;;;3.42;;
39654;SDS011;25336;59.944;11.010;2023-08-30T05:30:59;4.97;;;2.70;;
39654;SDS011;25336;59.944;11.010;2023-08-30T05:33:25;8.70;;;2.92;;
39654;SDS011;25336;59.944;11.010;2023-08-30T05:35:51;7.03;;;3.20;;
39654;SDS011;25336;59.944;11.010;2023-08-30T05:38:16;5.10;;;3.55;;
39654;SDS011;25336;59.944;11.010;2023-08-30T05:40:42;6.30;;;3.60;;
39654;SDS011;25336;59.944;11.010;2023-08-30T05:43:10;12.77;;;4.53;;
39654;SDS011;25336;59.944;11.010;2023-08-30T05:45:36;6.75;;;3.15;;
39654;SDS011;25336;59.944;11.010;2023-08-30T05:48:02;15.63;;;3.97;;
39654;SDS011;25336;59.944;11.010;2023-08-30T05:50:28;12.95;;;4.57;;
39654;SDS011;25336;59.944;11.010;2023-08-30T05:52:54;13.05;;;4.78;;
39654;SDS011;25336;59.944;11.010;2023-08-30T05:55:20;11.48;;;4.72;;
39654;SDS011;25336;59.944;11.010;2023-08-30T05:57:46;11.60;;;4.93;;
39654;SDS011;25336;59.944;11.010;2023-08-30T06:00:12;10.27;;;4.35;;
39654;SDS011;25336;59.944;11.010;2023-08-30T06:02:38;17.00;;;5.57;;
39654;SDS011;25336;59.944;11.010;2023-08-30T06:05:05;13.18;;;5.60;;
39654;SDS011;25336;59.944;11.010;2023-08-30T06:07:31;8.18;;;4.40;;
39654;SDS011;25336;59.944;11.010;2023-08-30T06:09:57;16.52;;;5.60;;
39654;SDS011;25336;59.944;11.010;2023-08-30T06:12:22;18.98;;;6.93;;
39654;SDS011;25336;59.944;11.010;2023-08-30T06:14:48;11.43;;;6.15;;
39654;SDS011;25336;59.944;11.010;2023-08-30T06:17:17;13.85;;;6.43;;
39654;SDS011;25336;59.944;11.010;2023-08-30T06:19:46;19.60;;;7.10;;
39654;SDS011;25336;59.944;11.010;2023-08-30T06:22:12;10.25;;;6.18;;
39654;SDS011;25336;59.944;11.010;2023-08-30T06:24:38;14.32;;;7.10;;
39654;SDS011;25336;59.944;11.010;2023-08-30T06:27:03;9.23;;;4.70;;
39654;SDS011;25336;59.944;11.010;2023-08-30T06:29:30;10.90;;;5.70;;
39654;SDS011;25336;59.944;11.010;2023-08-30T06:31:55;9.73;;;5.55;;
39654;SDS011;25336;59.944;11.010;2023-08-30T06:34:21;9.48;;;5.88;;
39654;SDS011;25336;59.944;11.010;2023-08-30T06:36:47;14.07;;;6.28;;
39654;SDS011;25336;59.944;11.010;2023-08-30T06:39:13;7.57;;;5.13;;
39654;SDS011;25336;59.944;11.010;2023-08-30T06:41:39;11.13;;;5.30;;
39654;SDS011;25336;59.944;11.010;2023-08-30T06:44:04;5.93;;;4.95;;
39654;SDS011;25336;59.944;11.010;2023-08-30T06:46:30;15.30;;;5.30;;
39654;SDS011;25336;59.944;11.010;2023-08-30T06:48:56;7.85;;;5.22;;
39654;SDS011;25336;59.944;11.010;2023-08-30T06:51:22;8.65;;;5.68;;
39654;SDS011;25336;59.944;11.010;2023-08-30T06:53:48;10.25;;;6.00;;
39654;SDS011;25336;59.944;11.010;2023-08-30T06:56:13;8.57;;;4.90;;
39654;SDS011;25336;59.944;11.010;2023-08-30T06:58:39;7.57;;;4.68;;
39654;SDS011;25336;59.944;11.010;2023-08-30T07:01:04;10.32;;;5.95;;
39654;SDS011;25336;59.944;11.010;2023-08-30T07:03:30;12.15;;;5.72;;
39654;SDS011;25336;59.944;11.010;2023-08-30T07:05:56;8.82;;;5.07;;
39654;SDS011;25336;59.944;11.010;2023-08-30T07:08:21;7.78;;;5.43;;
39654;SDS011;25336;59.944;11.010;2023-08-30T07:10:47;9.93;;;4.57;;
39654;SDS011;25336;59.944;11.010;2023-08-30T07:13:13;9.43;;;4.78;;
39654;SDS011;25336;59.944;11.010;2023-08-30T07:15:39;4.35;;;3.72;;
39654;SDS011;25336;59.944;11.010;2023-08-30T07:18:05;9.20;;;4.85;;
39654;SDS011;25336;59.944;11.010;2023-08-30T07:20:32;10.25;;;4.80;;
39654;SDS011;25336;59.944;11.010;2023-08-30T07:22:57;7.88;;;4.88;;
39654;SDS011;25336;59.944;11.010;2023-08-30T07:25:23;7.43;;;4.40;;
39654;SDS011;25336;59.944;11.010;2023-08-30T07:27:49;5.93;;;3.90;;
39654;SDS011;25336;59.944;11.010;2023-08-30T07:30:15;5.15;;;3.97;;
39654;SDS011;25336;59.944;11.010;2023-08-30T07:32:40;6.18;;;3.83;;
39654;SDS011;25336;59.944;11.010;2023-08-30T07:35:07;4.20;;;3.78;;
39654;SDS011;25336;59.944;11.010;2023-08-30T07:37:33;6.57;;;4.35;;
39654;SDS011;25336;59.944;11.010;2023-08-30T07:40:00;4.30;;;3.50;;
39654;SDS011;25336;59.944;11.010;2023-08-30T07:42:25;8.05;;;4.25;;
39654;SDS011;25336;59.944;11.010;2023-08-30T07:44:51;4.30;;;3.72;;
39654;SDS011;25336;59.944;11.010;2023-08-30T07:47:17;6.05;;;4.50;;
39654;SDS011;25336;59.944;11.010;2023-08-30T07:49:42;7.15;;;4.00;;
39654;SDS011;25336;59.944;11.010;2023-08-30T07:52:08;10.98;;;3.70;;
39654;SDS011;25336;59.944;11.010;2023-08-30T07:54:36;4.57;;;4.03;;
39654;SDS011;25336;59.944;11.010;2023-08-30T07:57:02;7.88;;;4.07;;
39654;SDS011;25336;59.944;11.010;2023-08-30T07:59:28;5.43;;;3.55;;
39654;SDS011;25336;59.944;11.010;2023-08-30T08:01:54;6.07;;;3.40;;
39654;SDS011;25336;59.944;11.010;2023-08-30T08:04:20;4.10;;;3.35;;
39654;SDS011;25336;59.944;11.010;2023-08-30T08:06:46;4.85;;;3.53;;
39654;SDS011;25336;59.944;11.010;2023-08-30T08:09:12;4.97;;;3.63;;
39654;SDS011;25336;59.944;11.010;2023-08-30T08:11:38;7.50;;;3.83;;
39654;SDS011;25336;59.944;11.010;2023-08-30T08:14:08;6.85;;;3.78;;
39654;SDS011;25336;59.944;11.010;2023-08-30T08:16:37;5.70;;;3.30;;
39654;SDS011;25336;59.944;11.010;2023-08-30T08:19:03;6.93;;;3.25;;
39654;SDS011;25336;59.944;11.010;2023-08-30T08:21:29;4.68;;;2.92;;
39654;SDS011;25336;59.944;11.010;2023-08-30T08:23:54;8.70;;;2.65;;
39654;SDS011;25336;59.944;11.010;2023-08-30T08:26:20;5.38;;;3.35;;
39654;SDS011;25336;59.944;11.010;2023-08-30T08:28:46;6.10;;;2.80;;
39654;SDS011;25336;59.944;11.010;2023-08-30T08:31:11;3.85;;;2.90;;
39654;SDS011;25336;59.944;11.010;2023-08-30T08:33:37;4.07;;;3.05;;
39654;SDS011;25336;59.944;11.010;2023-08-30T08:36:03;2.75;;;2.50;;
39654;SDS011;25336;59.944;11.010;2023-08-30T08:38:28;8.18;;;3.70;;
39654;SDS011;25336;59.944;11.010;2023-08-30T08:41:01;5.63;;;2.97;;
39654;SDS011;25336;59.944;11.010;2023-08-30T08:43:28;7.10;;;3.30;;
39654;SDS011;25336;59.944;11.010;2023-08-30T08:45:56;2.88;;;2.58;;
39654;SDS011;25336;59.944;11.010;2023-08-30T08:48:25;6.65;;;3.05;;
39654;SDS011;25336;59.944;11.010;2023-08-30T08:50:54;4.50;;;2.72;;
39654;SDS011;25336;59.944;11.010;2023-08-30T08:53:22;7.05;;;2.88;;
39654;SDS011;25336;59.944;11.010;2023-08-30T08:55:48;2.95;;;2.60;;
39654;SDS011;25336;59.944;11.010;2023-08-30T08:58:16;3.95;;;2.97;;
39654;SDS011;25336;59.944;11.010;2023-08-30T09:00:42;3.15;;;2.53;;
39654;SDS011;25336;59.944;11.010;2023-08-30T09:03:08;5.22;;;2.95;;
39654;SDS011;25336;59.944;11.010;2023-08-30T09:05:35;3.80;;;2.53;;
39654;SDS011;25336;59.944;11.010;2023-08-30T09:08:03;4.18;;;2.30;;
39654;SDS011;25336;59.944;11.010;2023-08-30T09:10:31;3.15;;;2.25;;
39654;SDS011;25336;59.944;11.010;2023-08-30T09:12:57;5.38;;;2.20;;
39654;SDS011;25336;59.944;11.010;2023-08-30T09:15:30;2.55;;;2.33;;
39654;SDS011;25336;59.944;11.010;2023-08-30T09:17:59;8.15;;;3.38;;
39654;SDS011;25336;59.944;11.010;2023-08-30T09:20:25;3.08;;;2.30;;
39654;SDS011;25336;59.944;11.010;2023-08-30T09:22:51;4.32;;;2.13;;
39654;SDS011;25336;59.944;11.010;2023-08-30T09:25:23;4.95;;;2.17;;
39654;SDS011;25336;59.944;11.010;2023-08-30T09:27:50;2.63;;;1.98;;
39654;SDS011;25336;59.944;11.010;2023-08-30T09:30:22;3.28;;;2.22;;
39654;SDS011;25336;59.944;11.010;2023-08-30T09:32:48;3.85;;;1.90;;
39654;SDS011;25336;59.944;11.010;2023-08-30T09:35:14;2.17;;;1.77;;
39654;SDS011;25336;59.944;11.010;2023-08-30T09:37:40;2.40;;;1.98;;
39654;SDS011;25336;59.944;11.010;2023-08-30T09:40:05;4.90;;;2.45;;
39654;SDS011;25336;59.944;11.010;2023-08-30T09:42:32;7.13;;;2.78;;
39654;SDS011;25336;59.944;11.010;2023-08-30T09:44:57;4.32;;;1.90;;
39654;SDS011;25336;59.944;11.010;2023-08-30T09:47:26;4.20;;;1.75;;
39654;SDS011;25336;59.944;11.010;2023-08-30T09:49:54;2.65;;;1.75;;
39654;SDS011;25336;59.944;11.010;2023-08-30T09:52:21;2.30;;;1.88;;
39654;SDS011;25336;59.944;11.010;2023-08-30T09:54:50;4.47;;;1.75;;
39654;SDS011;25336;59.944;11.010;2023-08-30T09:57:16;6.80;;;2.60;;
39654;SDS011;25336;59.944;11.010;2023-08-30T09:59:43;4.95;;;2.00;;
39654;SDS011;25336;59.944;11.010;2023-08-30T10:02:11;3.90;;;1.77;;
39654;SDS011;25336;59.944;11.010;2023-08-30T10:04:40;3.47;;;1.50;;
39654;SDS011;25336;59.944;11.010;2023-08-30T10:07:06;3.28;;;1.52;;
39654;SDS011;25336;59.944;11.010;2023-08-30T10:09:32;1.50;;;1.27;;
39654;SDS011;25336;59.944;11.010;2023-08-30T10:11:58;2.65;;;1.77;;
39654;SDS011;25336;59.944;11.010;2023-08-30T10:14:26;2.75;;;1.60;;
39654;SDS011;25336;59.944;11.010;2023-08-30T10:16:54;4.60;;;1.63;;
39654;SDS011;25336;59.944;11.010;2023-08-30T10:19:33;3.47;;;1.80;;
39654;SDS011;25336;59.944;11.010;2023-08-30T10:22:02;2.40;;;1.70;;
39654;SDS011;25336;59.944;11.010;2023-08-30T10:24:30;2.13;;;1.50;;
39654;SDS011;25336;59.944;11.010;2023-08-30T10:27:00;4.28;;;1.30;;
39654;SDS011;25336;59.944;11.010;2023-08-30T10:29:29;5.25;;;1.65;;
39654;SDS011;25336;59.944;11.010;2023-08-30T10:32:04;1.83;;;1.20;;
39654;SDS011;25336;59.944;11.010;2023-08-30T10:34:34;2.20;;;1.50;;
39654;SDS011;25336;59.944;11.010;2023-08-30T10:37:01;3.30;;;1.30;;
39654;SDS011;25336;59.944;11.010;2023-08-30T10:39:38;3.08;;;1.50;;
39654;SDS011;25336;59.944;11.010;2023-08-30T10:42:12;2.22;;;1.40;;
39654;SDS011;25336;59.944;11.010;2023-08-30T10:44:52;4.43;;;1.60;;
39654;SDS011;25336;59.944;11.010;2023-08-30T10:47:34;3.22;;;1.23;;
39654;SDS011;25336;59.944;11.010;2023-08-30T10:50:06;1.55;;;1.30;;
39654;SDS011;25336;59.944;11.010;2023-08-30T10:52:33;3.03;;;1.75;;
39654;SDS011;25336;59.944;11.010;2023-08-30T10:55:05;1.30;;;1.20;;
39654;SDS011;25336;59.944;11.010;2023-08-30T10:57:42;2.08;;;1.33;;
39654;SDS011;25336;59.944;11.010;2023-08-30T11:00:20;3.47;;;1.20;;
39654;SDS011;25336;59.944;11.010;2023-08-30T11:02:50;2.70;;;1.42;;
39654;SDS011;25336;59.944;11.010;2023-08-30T11:05:17;3.15;;;1.25;;
39654;SDS011;25336;59.944;11.010;2023-08-30T11:07:44;2.03;;;1.23;;
39654;SDS011;25336;59.944;11.010;2023-08-30T11:10:11;3.08;;;1.58;;
39654;SDS011;25336;59.944;11.010;2023-08-30T11:12:39;4.32;;;1.30;;
39654;SDS011;25336;59.944;11.010;2023-08-30T11:15:09;1.60;;;1.30;;
39654;SDS011;25336;59.944;11.010;2023-08-30T11:17:36;2.92;;;1.27;;
39654;SDS011;25336;59.944;11.010;2023-08-30T11:20:20;1.52;;;1.17;;
39654;SDS011;25336;59.944;11.010;2023-08-30T11:22:46;1.35;;;1.02;;
39654;SDS011;25336;59.944;11.010;2023-08-30T11:25:13;1.70;;;1.38;;
39654;SDS011;25336;59.944;11.010;2023-08-30T11:27:41;1.83;;;1.20;;
39654;SDS011;25336;59.944;11.010;2023-08-30T11:30:07;2.15;;;1.10;;
39654;SDS011;25336;59.944;11.010;2023-08-30T11:32:35;4.35;;;1.48;;
39654;SDS011;25336;59.944;11.010;2023-08-30T11:35:02;4.20;;;1.27;;
39654;SDS011;25336;59.944;11.010;2023-08-30T11:37:28;1.77;;;1.23;;
39654;SDS011;25336;59.944;11.010;2023-08-30T11:39:55;2.70;;;1.02;;
39654;SDS011;25336;59.944;11.010;2023-08-30T11:42:21;2.80;;;1.30;;
39654;SDS011;25336;59.944;11.010;2023-08-30T11:44:47;1.77;;;1.05;;
39654;SDS011;25336;59.944;11.010;2023-08-30T11:47:22;4.15;;;1.30;;
39654;SDS011;25336;59.944;11.010;2023-08-30T11:49:48;3.47;;;1.40;;
39654;SDS011;25336;59.944;11.010;2023-08-30T11:52:15;2.88;;;1.10;;
39654;SDS011;25336;59.944;11.010;2023-08-30T11:54:42;2.75;;;1.40;;
39654;SDS011;25336;59.944;11.010;2023-08-30T11:57:08;4.22;;;0.90;;
39654;SDS011;25336;59.944;11.010;2023-08-30T11:59:34;1.17;;;0.88;;
39654;SDS011;25336;59.944;11.010;2023-08-30T12:02:01;1.95;;;1.20;;
39654;SDS011;25336;59.944;11.010;2023-08-30T12:04:27;2.22;;;1.33;;
39654;SDS011;25336;59.944;11.010;2023-08-30T12:06:53;3.75;;;1.25;;
39654;SDS011;25336;59.944;11.010;2023-08-30T12:09:19;2.33;;;1.00;;
39654;SDS011;25336;59.944;11.010;2023-08-30T12:11:47;3.38;;;1.10;;
39654;SDS011;25336;59.944;11.010;2023-08-30T12:14:16;1.60;;;0.82;;
39654;SDS011;25336;59.944;11.010;2023-08-30T12:16:42;2.75;;;0.90;;
39654;SDS011;25336;59.944;11.010;2023-08-30T12:19:11;3.95;;;1.13;;
39654;SDS011;25336;59.944;11.010;2023-08-30T12:21:42;2.50;;;1.25;;
39654;SDS011;25336;59.944;11.010;2023-08-30T12:24:08;2.05;;;1.20;;
39654;SDS011;25336;59.944;11.010;2023-08-30T12:26:34;2.20;;;1.30;;
39654;SDS011;25336;59.944;11.010;2023-08-30T12:29:03;1.80;;;1.13;;
39654;SDS011;25336;59.944;11.010;2023-08-30T12:31:29;5.82;;;1.38;;
39654;SDS011;25336;59.944;11.010;2023-08-30T12:33:56;1.33;;;0.80;;
39654;SDS011;25336;59.944;11.010;2023-08-30T12:36:21;2.97;;;1.02;;
39654;SDS011;25336;59.944;11.010;2023-08-30T12:38:47;2.25;;;1.02;;
39654;SDS011;25336;59.944;11.010;2023-08-30T12:41:13;1.33;;;0.90;;
39654;SDS011;25336;59.944;11.010;2023-08-30T12:43:38;3.10;;;1.20;;
39654;SDS011;25336;59.944;11.010;2023-08-30T12:46:04;1.48;;;0.75;;
39654;SDS011;25336;59.944;11.010;2023-08-30T12:48:30;1.98;;;0.98;;
39654;SDS011;25336;59.944;11.010;2023-08-30T12:50:56;2.55;;;1.15;;
39654;SDS011;25336;59.944;11.010;2023-08-30T12:53:22;1.90;;;0.80;;
39654;SDS011;25336;59.944;11.010;2023-08-30T12:55:48;3.03;;;1.00;;
39654;SDS011;25336;59.944;11.010;2023-08-30T12:58:13;0.98;;;0.88;;
39654;SDS011;25336;59.944;11.010;2023-08-30T13:00:39;1.27;;;0.80;;
39654;SDS011;25336;59.944;11.010;2023-08-30T13:03:05;0.82;;;0.82;;
39654;SDS011;25336;59.944;11.010;2023-08-30T13:05:31;0.95;;;0.90;;
39654;SDS011;25336;59.944;11.010;2023-08-30T13:07:57;1.60;;;1.23;;
39654;SDS011;25336;59.944;11.010;2023-08-30T13:10:26;1.02;;;0.93;;
39654;SDS011;25336;59.944;11.010;2023-08-30T13:12:51;1.95;;;1.00;;
39654;SDS011;25336;59.944;11.010;2023-08-30T13:15:17;1.63;;;1.20;;
39654;SDS011;25336;59.944;11.010;2023-08-30T13:17:43;2.50;;;0.90;;
39654;SDS011;25336;59.944;11.010;2023-08-30T13:20:09;2.28;;;1.02;;
39654;SDS011;25336;59.944;11.010;2023-08-30T13:22:35;2.25;;;1.38;;
39654;SDS011;25336;59.944;11.010;2023-08-30T13:25:01;1.25;;;1.15;;
39654;SDS011;25336;59.944;11.010;2023-08-30T13:27:28;1.50;;;1.13;;
39654;SDS011;25336;59.944;11.010;2023-08-30T13:29:54;1.55;;;0.90;;
39654;SDS011;25336;59.944;11.010;2023-08-30T13:32:20;1.13;;;1.00;;
39654;SDS011;25336;59.944;11.010;2023-08-30T13:34:45;3.67;;;1.35;;
39654;SDS011;25336;59.944;11.010;2023-08-30T13:37:12;1.35;;;0.98;;
39654;SDS011;25336;59.944;11.010;2023-08-30T13:39:38;1.48;;;1.30;;
39654;SDS011;25336;59.944;11.010;2023-08-30T13:42:04;4.05;;;1.00;;
39654;SDS011;25336;59.944;11.010;2023-08-30T13:44:30;1.65;;;1.08;;
39654;SDS011;25336;59.944;11.010;2023-08-30T13:46:57;1.50;;;1.00;;
39654;SDS011;25336;59.944;11.010;2023-08-30T13:49:23;1.50;;;1.20;;
39654;SDS011;25336;59.944;11.010;2023-08-30T13:51:48;3.28;;;1.10;;
39654;SDS011;25336;59.944;11.010;2023-08-30T13:54:14;1.77;;;1.02;;
39654;SDS011;25336;59.944;11.010;2023-08-30T13:56:40;4.63;;;1.35;;
39654;SDS011;25336;59.944;11.010;2023-08-30T13:59:08;1.38;;;1.08;;
39654;SDS011;25336;59.944;11.010;2023-08-30T14:01:34;3.10;;;1.10;;
39654;SDS011;25336;59.944;11.010;2023-08-30T14:04:02;1.77;;;1.25;;
39654;SDS011;25336;59.944;11.010;2023-08-30T14:06:30;1.23;;;0.95;;
39654;SDS011;25336;59.944;11.010;2023-08-30T14:08:56;1.98;;;1.17;;
39654;SDS011;25336;59.944;11.010;2023-08-30T14:11:22;1.55;;;1.17;;
39654;SDS011;25336;59.944;11.010;2023-08-30T14:13:47;3.70;;;1.58;;
39654;SDS011;25336;59.944;11.010;2023-08-30T14:16:13;6.25;;;1.58;;
39654;SDS011;25336;59.944;11.010;2023-08-30T14:18:39;1.20;;;1.10;;
39654;SDS011;25336;59.944;11.010;2023-08-30T14:21:05;1.30;;;1.10;;
39654;SDS011;25336;59.944;11.010;2023-08-30T14:23:30;2.83;;;1.35;;
39654;SDS011;25336;59.944;11.010;2023-08-30T14:26:00;1.75;;;1.17;;
39654;SDS011;25336;59.944;11.010;2023-08-30T14:28:33;1.00;;;0.95;;
39654;SDS011;25336;59.944;11.010;2023-08-30T14:30:59;1.85;;;1.10;;
39654;SDS011;25336;59.944;11.010;2023-08-30T14:33:25;0.90;;;0.90;;